createdAt,value
2019-04-05T00:00:09.928Z,99.99
2019-04-05T00:01:10.660Z,100.19
2019-04-05T00:02:11.247Z,100.00
2019-04-05T00:03:11.995Z,99.98
2019-04-05T00:04:12.702Z,99.68
2019-04-05T00:05:13.383Z,99.88
2019-04-05T00:06:13.905Z,99.88
2019-04-05T00:07:14.712Z,99.73
2019-04-05T00:08:15.291Z,100.09
2019-04-05T00:09:16.215Z,100.08
2019-04-05T00:10:16.851Z,100.18
2019-04-05T00:11:17.420Z,99.96
2019-04-05T00:12:18.040Z,99.89
2019-04-05T00:13:18.634Z,99.80
2019-04-05T00:14:19.258Z,99.97
2019-04-05T00:15:19.950Z,100.08
2019-04-05T00:16:20.495Z,100.17
2019-04-05T00:17:21.075Z,99.92
2019-04-05T00:18:21.788Z,100.07
2019-04-05T00:19:22.257Z,100.04
2019-04-05T00:20:21.777Z,99.51
2019-04-05T00:21:23.318Z,99.36
2019-04-05T00:22:23.822Z,99.28
2019-04-05T00:23:24.289Z,99.62
2019-04-05T00:24:24.756Z,99.47
2019-04-05T00:25:25.688Z,99.41
2019-04-05T00:26:26.125Z,99.64
2019-04-05T00:27:26.517Z,99.89
2019-04-05T00:28:27.038Z,99.90
2019-04-05T00:29:27.610Z,99.71
2019-04-05T00:30:28.263Z,99.58
2019-04-05T00:31:28.956Z,99.43
2019-04-05T00:32:29.500Z,99.36
2019-04-05T00:33:29.966Z,99.25
2019-04-05T00:34:30.711Z,99.29
2019-04-05T00:35:30.348Z,99.17
2019-04-05T00:36:31.838Z,98.92
2019-04-05T00:37:32.306Z,98.85
2019-04-05T00:38:32.741Z,98.82
2019-04-05T00:39:33.146Z,98.79
2019-04-05T00:40:33.600Z,99.04
2019-04-05T00:41:33.996Z,99.22
2019-04-05T00:42:34.448Z,99.41
2019-04-05T00:43:34.939Z,99.32
2019-04-05T00:43:43.469Z,99.51
2019-04-05T00:44:44.949Z,99.53
2019-04-05T00:45:45.441Z,99.70
2019-04-05T00:46:45.978Z,99.51
2019-04-05T00:47:46.514Z,99.66
2019-04-05T00:48:47.035Z,99.57
2019-04-05T00:49:47.790Z,99.57
2019-04-05T00:50:48.423Z,99.50
2019-04-05T00:51:48.962Z,99.54
2019-04-05T00:52:49.550Z,99.32
2019-04-05T00:53:50.022Z,99.50
2019-04-05T00:54:50.761Z,99.68
2019-04-05T00:55:51.492Z,99.93
2019-04-05T00:56:52.071Z,100.13
2019-04-05T00:57:51.574Z,100.27
2019-04-05T00:58:53.183Z,100.40
2019-04-05T00:59:53.887Z,100.38
2019-04-05T01:00:54.458Z,100.28
2019-04-05T01:01:54.976Z,100.51
2019-04-05T01:02:55.472Z,100.79
2019-04-05T01:03:56.122Z,100.60
2019-04-05T01:04:56.700Z,100.89
2019-04-05T01:05:57.295Z,100.95
2019-04-05T01:06:57.837Z,100.80
2019-04-05T01:07:58.384Z,100.70
2019-04-05T01:08:58.924Z,100.90
2019-04-05T01:09:59.452Z,100.46
2019-04-05T01:11:00.039Z,100.69
2019-04-05T01:12:00.797Z,100.25
2019-04-05T01:13:01.244Z,100.39
2019-04-05T01:14:01.847Z,100.35
2019-04-05T01:15:02.348Z,100.64
2019-04-05T01:16:02.838Z,100.46
2019-04-05T01:17:03.554Z,100.72
2019-04-05T01:18:04.247Z,100.76
2019-04-05T01:19:04.834Z,101.04
2019-04-05T01:20:05.448Z,101.25
2019-04-05T01:21:06.337Z,101.48
2019-04-05T01:22:07.150Z,101.31
2019-04-05T01:23:07.724Z,101.69
2019-04-05T01:24:08.262Z,101.60
2019-04-05T01:25:08.899Z,101.75
2019-04-05T01:26:09.543Z,101.92
2019-04-05T01:26:18.072Z,101.56
2019-04-05T01:27:19.238Z,101.57
2019-04-05T01:28:19.690Z,101.84
2019-04-05T01:29:20.128Z,101.70
2019-04-05T01:30:20.700Z,101.68
2019-04-05T01:31:21.252Z,101.60
2019-04-05T01:32:21.916Z,101.63
2019-04-05T01:33:22.497Z,101.63
2019-04-05T01:34:23.016Z,101.73
2019-04-05T01:35:23.703Z,101.70
2019-04-05T01:36:24.158Z,101.70
2019-04-05T01:37:24.951Z,101.74
2019-04-05T01:38:25.500Z,101.97
2019-04-05T01:39:26.451Z,102.36
2019-04-05T01:40:27.131Z,102.33
2019-04-05T01:41:27.915Z,102.17
2019-04-05T01:42:28.666Z,101.84
2019-04-05T01:43:29.211Z,101.67
2019-04-05T01:44:29.765Z,101.69
2019-04-05T01:45:30.324Z,101.58
2019-04-05T01:46:31.050Z,101.69
2019-04-05T01:47:31.654Z,101.58
2019-04-05T01:48:32.250Z,101.63
2019-04-05T01:49:32.665Z,101.66
2019-04-05T01:50:33.224Z,101.52
2019-04-05T01:51:32.705Z,101.40
2019-04-05T01:52:34.181Z,101.21
2019-04-05T01:53:35.038Z,101.05
2019-04-05T01:54:35.555Z,100.69
2019-04-05T01:55:36.061Z,100.67
2019-04-05T01:56:36.707Z,100.76
2019-04-05T01:57:37.247Z,100.74
2019-04-05T01:58:37.813Z,101.16
2019-04-05T01:59:38.409Z,101.08
2019-04-05T02:00:38.888Z,101.18
2019-04-05T02:01:39.445Z,101.40
2019-04-05T02:02:40.126Z,101.37
2019-04-05T02:03:40.693Z,101.24
2019-04-05T02:04:41.216Z,101.03
2019-04-05T02:05:41.732Z,101.00
2019-04-05T02:06:42.258Z,100.98
2019-04-05T02:07:43.024Z,101.21
2019-04-05T02:08:43.978Z,101.32
2019-04-05T02:09:44.700Z,101.63
2019-04-05T02:10:45.303Z,101.50
2019-04-05T02:11:45.786Z,101.11
2019-04-05T02:11:54.338Z,101.20
2019-04-05T02:12:55.838Z,101.18
2019-04-05T02:13:56.590Z,100.99
2019-04-05T02:14:57.282Z,100.93
2019-04-05T02:16:06.083Z,100.48
2019-04-05T02:16:58.094Z,100.43
2019-04-05T02:17:59.638Z,100.21
2019-04-05T02:19:00.245Z,100.19
2019-04-05T02:20:01.012Z,100.29
2019-04-05T02:21:01.618Z,100.49
2019-04-05T02:22:02.160Z,100.95
2019-04-05T02:23:02.922Z,101.01
2019-04-05T02:24:03.541Z,100.81
2019-04-05T02:25:04.180Z,101.36
2019-04-05T02:26:04.211Z,101.42
2019-04-05T02:27:04.724Z,101.61
2019-04-05T02:28:05.339Z,101.63
2019-04-05T02:29:05.827Z,101.69
2019-04-05T02:30:06.405Z,101.64
2019-04-05T02:31:06.925Z,101.63
2019-04-05T02:32:06.973Z,101.52
2019-04-05T02:33:07.633Z,101.34
2019-04-05T02:34:08.322Z,101.74
2019-04-05T02:35:08.894Z,101.98
2019-04-05T02:36:09.467Z,101.93
2019-04-05T02:37:10.199Z,102.16
2019-04-05T02:38:10.784Z,102.17
2019-04-05T02:39:11.461Z,102.08
2019-04-05T02:40:10.972Z,102.14
2019-04-05T02:41:12.575Z,102.44
2019-04-05T02:42:13.105Z,102.38
2019-04-05T02:43:13.741Z,102.07
2019-04-05T02:44:14.260Z,101.91
2019-04-05T02:45:14.825Z,101.75
2019-04-05T02:46:23.529Z,101.68
2019-04-05T02:47:14.994Z,101.91
2019-04-05T02:48:16.595Z,101.93
2019-04-05T02:49:17.516Z,102.30
2019-04-05T02:50:18.267Z,102.35
2019-04-05T02:51:18.774Z,102.54
2019-04-05T02:52:19.486Z,102.72
2019-04-05T02:53:20.154Z,102.65
2019-04-05T02:54:20.843Z,102.71
2019-04-05T02:55:21.440Z,102.76
2019-04-05T02:55:29.995Z,102.70
2019-04-05T02:56:31.433Z,102.72
2019-04-05T02:57:32.148Z,102.70
2019-04-05T02:58:32.761Z,102.72
2019-04-05T02:59:33.396Z,102.68
2019-04-05T03:00:33.925Z,103.11
2019-04-05T03:01:34.452Z,103.18
2019-04-05T03:02:34.788Z,102.89
2019-04-05T03:03:35.585Z,102.47
2019-04-05T03:04:35.945Z,102.47
2019-04-05T03:05:36.340Z,102.26
2019-04-05T03:06:36.796Z,102.16
2019-04-05T03:07:37.220Z,102.22
2019-04-05T03:08:37.727Z,101.99
2019-04-05T03:09:38.310Z,102.01
2019-04-05T03:10:38.850Z,101.98
2019-04-05T03:11:39.499Z,102.03
2019-04-05T03:12:39.974Z,102.29
2019-04-05T03:13:40.508Z,102.17
2019-04-05T03:14:41.139Z,102.06
2019-04-05T03:15:41.717Z,102.11
2019-04-05T03:16:42.394Z,102.17
2019-04-05T03:17:43.346Z,101.92
2019-04-05T03:18:42.884Z,102.00
2019-04-05T03:19:44.613Z,101.65
2019-04-05T03:20:45.086Z,101.52
2019-04-05T03:21:45.665Z,101.11
2019-04-05T03:22:46.175Z,101.15
2019-04-05T03:23:46.903Z,101.35
2019-04-05T03:24:47.480Z,101.29
2019-04-05T03:25:48.417Z,101.55
2019-04-05T03:26:47.766Z,101.44
2019-04-05T03:27:49.422Z,101.62
2019-04-05T03:28:50.041Z,101.64
2019-04-05T03:29:50.800Z,101.64
2019-04-05T03:30:51.426Z,101.55
2019-04-05T03:31:51.942Z,101.59
2019-04-05T03:32:52.555Z,101.58
2019-04-05T03:33:53.094Z,101.80
2019-04-05T03:34:53.789Z,101.69
2019-04-05T03:35:53.310Z,101.83
2019-04-05T03:36:54.978Z,101.94
2019-04-05T03:37:55.511Z,102.04
2019-04-05T03:38:56.141Z,101.96
2019-04-05T03:39:56.899Z,101.97
2019-04-05T03:40:57.424Z,102.26
2019-04-05T03:41:58.252Z,102.21
2019-04-05T03:42:06.777Z,102.55
2019-04-05T03:43:08.297Z,102.56
2019-04-05T03:44:09.101Z,102.55
2019-04-05T03:45:08.934Z,102.48
2019-04-05T03:46:10.574Z,102.31
2019-04-05T03:47:11.138Z,102.17
2019-04-05T03:48:11.660Z,102.22
2019-04-05T03:49:12.306Z,102.14
2019-04-05T03:50:12.049Z,102.35
2019-04-05T03:51:13.505Z,102.58
2019-04-05T03:52:14.029Z,102.18
2019-04-05T03:53:14.677Z,102.24
2019-04-05T03:54:15.620Z,102.13
2019-04-05T03:55:16.144Z,102.12
2019-04-05T03:56:16.662Z,102.15
2019-04-05T03:57:17.166Z,101.86
2019-04-05T03:58:17.824Z,102.02
2019-04-05T03:59:18.491Z,101.86
2019-04-05T04:00:19.321Z,101.67
2019-04-05T04:01:19.916Z,101.78
2019-04-05T04:02:23.484Z,101.72
2019-04-05T04:03:20.362Z,101.56
2019-04-05T04:04:22.111Z,101.59
2019-04-05T04:05:22.554Z,101.86
2019-04-05T04:06:23.213Z,102.08
2019-04-05T04:07:23.975Z,102.06
2019-04-05T04:08:24.410Z,102.36
2019-04-05T04:09:24.908Z,102.55
2019-04-05T04:10:25.470Z,102.44
2019-04-05T04:11:25.998Z,102.43
2019-04-05T04:12:26.498Z,102.10
2019-04-05T04:13:26.965Z,102.03
2019-04-05T04:14:27.950Z,102.11
2019-04-05T04:15:28.598Z,101.79
2019-04-05T04:16:29.099Z,102.02
2019-04-05T04:17:29.666Z,102.31
2019-04-05T04:18:30.239Z,102.34
2019-04-05T04:19:30.748Z,102.21
2019-04-05T04:20:31.234Z,102.08
2019-04-05T04:21:31.790Z,102.33
2019-04-05T04:22:32.290Z,102.49
2019-04-05T04:23:32.793Z,102.38
2019-04-05T04:24:33.280Z,102.52
2019-04-05T04:25:33.285Z,102.57
2019-04-05T04:26:33.808Z,102.66
2019-04-05T04:26:42.380Z,102.65
2019-04-05T04:27:43.918Z,102.66
2019-04-05T04:28:44.621Z,102.54
2019-04-05T04:29:45.106Z,102.67
2019-04-05T04:30:45.606Z,102.58
2019-04-05T04:31:46.252Z,102.35
2019-04-05T04:32:46.819Z,102.32
2019-04-05T04:33:47.323Z,102.22
2019-04-05T04:34:48.076Z,102.42
2019-04-05T04:35:48.593Z,102.37
2019-04-05T04:36:49.166Z,102.26
2019-04-05T04:37:50.811Z,102.29
2019-04-05T04:38:49.994Z,102.29
2019-04-05T04:39:50.506Z,102.21
2019-04-05T04:40:51.044Z,102.23
2019-04-05T04:41:51.779Z,102.24
2019-04-05T04:42:52.331Z,101.90
2019-04-05T04:43:52.704Z,102.01
2019-04-05T04:44:53.701Z,101.58
2019-04-05T04:45:54.185Z,101.51
2019-04-05T04:46:54.663Z,101.34
2019-04-05T04:47:55.160Z,101.59
2019-04-05T04:48:55.936Z,101.90
2019-04-05T04:49:56.655Z,102.20
2019-04-05T04:50:57.070Z,102.05
2019-04-05T04:51:57.634Z,102.20
2019-04-05T04:52:58.107Z,102.18
2019-04-05T04:53:58.678Z,101.84
2019-04-05T04:54:59.226Z,101.83
2019-04-05T04:55:59.848Z,101.61
2019-04-05T04:57:00.291Z,101.57
2019-04-05T04:58:00.951Z,101.46
2019-04-05T04:59:01.573Z,101.37
2019-04-05T05:00:02.060Z,101.46
2019-04-05T05:01:02.049Z,101.50
2019-04-05T05:02:02.739Z,101.51
2019-04-05T05:03:03.296Z,101.42
2019-04-05T05:04:03.964Z,101.54
2019-04-05T05:05:04.531Z,101.56
2019-04-05T05:06:04.521Z,101.67
2019-04-05T05:07:04.947Z,101.62
2019-04-05T05:08:05.445Z,101.41
2019-04-05T05:09:06.010Z,101.46
2019-04-05T05:10:06.732Z,101.56
2019-04-05T05:10:15.271Z,101.34
2019-04-05T05:11:16.830Z,101.37
2019-04-05T05:12:17.037Z,101.36
2019-04-05T05:13:16.810Z,101.86
2019-04-05T05:14:18.429Z,102.16
2019-04-05T05:15:19.221Z,102.44
2019-04-05T05:16:19.779Z,102.39
2019-04-05T05:17:20.431Z,102.33
2019-04-05T05:18:20.846Z,102.50
2019-04-05T05:19:21.547Z,102.46
2019-04-05T05:20:22.058Z,102.21
2019-04-05T05:21:22.839Z,102.54
2019-04-05T05:22:22.502Z,102.61
2019-04-05T05:23:24.022Z,102.77
2019-04-05T05:24:24.667Z,102.79
2019-04-05T05:25:24.198Z,102.94
2019-04-05T05:26:25.668Z,103.08
2019-04-05T05:27:26.299Z,102.98
2019-04-05T05:28:26.919Z,103.24
2019-04-05T05:29:27.394Z,103.21
2019-04-05T05:30:27.936Z,103.20
2019-04-05T05:31:28.484Z,102.96
2019-04-05T05:32:28.864Z,102.51
2019-04-05T05:33:29.307Z,102.41
2019-04-05T05:34:29.970Z,102.40
2019-04-05T05:35:30.442Z,102.14
2019-04-05T05:36:31.255Z,102.12
2019-04-05T05:37:32.974Z,101.89
2019-04-05T05:38:31.402Z,102.57
2019-04-05T05:39:32.813Z,102.60
2019-04-05T05:40:35.315Z,102.38
2019-04-05T05:41:33.278Z,102.69
2019-04-05T05:42:34.853Z,102.62
2019-04-05T05:43:35.390Z,102.51
2019-04-05T05:44:35.798Z,102.68
2019-04-05T05:45:36.526Z,102.48
2019-04-05T05:46:37.243Z,102.48
2019-04-05T05:47:50.711Z,102.19
2019-04-05T05:48:37.617Z,102.61
2019-04-05T05:49:39.357Z,102.50
2019-04-05T05:50:39.942Z,102.71
2019-04-05T05:51:40.785Z,102.89
2019-04-05T05:52:41.493Z,103.16
2019-04-05T05:53:42.095Z,103.05
2019-04-05T05:54:43.046Z,102.95
2019-04-05T05:55:43.375Z,102.89
2019-04-05T05:56:44.287Z,102.57
2019-04-05T05:57:45.100Z,102.38
2019-04-05T05:57:57.221Z,102.10
2019-04-05T05:58:57.578Z,102.07
2019-04-05T05:59:55.689Z,101.82
2019-04-05T06:00:57.487Z,101.63
2019-04-05T06:01:58.109Z,101.63
2019-04-05T06:02:58.876Z,101.53
2019-04-05T06:03:59.439Z,101.37
2019-04-05T06:04:59.987Z,101.36
2019-04-05T06:06:04.621Z,101.33
2019-04-05T06:06:59.963Z,101.12
2019-04-05T06:08:01.611Z,100.94
2019-04-05T06:09:01.358Z,100.91
2019-04-05T06:10:02.811Z,101.25
2019-04-05T06:11:02.319Z,101.57
2019-04-05T06:12:03.874Z,101.55
2019-04-05T06:13:06.693Z,101.74
2019-04-05T06:14:04.221Z,101.81
2019-04-05T06:15:05.889Z,101.64
2019-04-05T06:16:06.393Z,101.27
2019-04-05T06:17:07.048Z,100.88
2019-04-05T06:18:07.595Z,101.01
2019-04-05T06:19:08.144Z,101.23
2019-04-05T06:20:08.618Z,101.39
2019-04-05T06:21:09.330Z,101.31
2019-04-05T06:22:09.912Z,101.35
2019-04-05T06:23:10.456Z,101.16
2019-04-05T06:24:10.989Z,100.82
2019-04-05T06:25:11.958Z,100.92
2019-04-05T06:26:11.487Z,101.02
2019-04-05T06:27:13.133Z,101.05
2019-04-05T06:28:13.660Z,101.08
2019-04-05T06:29:14.227Z,100.89
2019-04-05T06:30:14.742Z,100.44
2019-04-05T06:31:15.190Z,100.19
2019-04-05T06:32:15.698Z,99.84
2019-04-05T06:33:16.270Z,99.63
2019-04-05T06:34:17.049Z,99.53
2019-04-05T06:35:17.680Z,99.64
2019-04-05T06:36:18.194Z,99.44
2019-04-05T06:37:18.770Z,99.31
2019-04-05T06:38:19.223Z,99.06
2019-04-05T06:39:20.748Z,99.11
2019-04-05T06:40:19.586Z,98.84
2019-04-05T06:41:20.902Z,98.90
2019-04-05T06:42:21.447Z,98.32
2019-04-05T06:43:21.968Z,98.70
2019-04-05T06:44:22.693Z,98.02
2019-04-05T06:45:22.800Z,97.76
2019-04-05T06:46:23.431Z,97.83
2019-04-05T06:47:24.025Z,97.62
2019-04-05T06:47:32.782Z,98.26
2019-04-05T06:48:33.466Z,98.24
2019-04-05T06:49:34.509Z,98.87
2019-04-05T06:50:34.986Z,98.83
2019-04-05T06:51:35.555Z,98.34
2019-04-05T06:52:35.969Z,98.00
2019-04-05T06:53:36.688Z,98.22
2019-04-05T06:54:37.168Z,98.71
2019-04-05T06:55:37.643Z,98.69
2019-04-05T06:56:38.175Z,98.42
2019-04-05T06:57:38.744Z,98.21
2019-04-05T06:58:39.169Z,98.75
2019-04-05T06:59:39.799Z,98.42
2019-04-05T07:00:40.577Z,98.63
2019-04-05T07:01:41.065Z,98.42
2019-04-05T07:02:41.857Z,98.15
2019-04-05T07:03:42.495Z,97.85
2019-04-05T07:04:43.054Z,97.55
2019-04-05T07:05:43.701Z,97.95
2019-04-05T07:06:44.241Z,97.32
2019-04-05T07:07:44.831Z,96.95
2019-04-05T07:08:53.643Z,96.85
2019-04-05T07:09:45.000Z,97.10
2019-04-05T07:10:45.441Z,96.87
2019-04-05T07:11:47.103Z,97.00
2019-04-05T07:12:47.649Z,96.48
2019-04-05T07:13:47.215Z,96.60
2019-04-05T07:14:48.813Z,97.11
2019-04-05T07:15:49.362Z,97.73
2019-04-05T07:16:50.160Z,97.75
2019-04-05T07:17:50.878Z,97.09
2019-04-05T07:18:51.431Z,97.27
2019-04-05T07:19:52.118Z,97.27
2019-04-05T07:20:52.669Z,97.05
2019-04-05T07:21:52.756Z,96.37
2019-04-05T07:22:53.251Z,95.64
2019-04-05T07:23:54.030Z,95.44
2019-04-05T07:24:54.522Z,96.37
2019-04-05T07:25:55.303Z,96.71
2019-04-05T07:26:55.961Z,96.63
2019-04-05T07:27:56.609Z,96.22
2019-04-05T07:28:57.105Z,96.29
2019-04-05T07:29:57.713Z,96.07
2019-04-05T07:30:57.871Z,95.75
2019-04-05T07:31:58.232Z,95.32
2019-04-05T07:32:58.872Z,95.55
2019-04-05T07:33:59.520Z,95.53
2019-04-05T07:34:08.092Z,95.54
2019-04-05T07:35:09.824Z,95.54
2019-04-05T07:36:10.512Z,95.28
2019-04-05T07:37:11.099Z,95.16
2019-04-05T07:38:11.711Z,95.53
2019-04-05T07:39:12.598Z,95.60
2019-04-05T07:40:13.126Z,95.38
2019-04-05T07:41:13.700Z,95.06
2019-04-05T07:42:14.179Z,94.85
2019-04-05T07:43:14.745Z,94.96
2019-04-05T07:44:15.379Z,95.55
2019-04-05T07:45:16.115Z,95.22
2019-04-05T07:46:16.587Z,94.90
2019-04-05T07:47:17.170Z,94.92
2019-04-05T07:48:17.793Z,94.73
2019-04-05T07:49:18.433Z,94.74
2019-04-05T07:50:19.287Z,94.77
2019-04-05T07:51:22.595Z,94.25
2019-04-05T07:52:19.408Z,94.56
2019-04-05T07:53:20.952Z,94.51
2019-04-05T07:54:21.584Z,94.91
2019-04-05T07:55:22.284Z,94.94
2019-04-05T07:56:22.737Z,94.26
2019-04-05T07:57:23.316Z,94.54
2019-04-05T07:58:23.840Z,94.70
2019-04-05T07:59:24.576Z,94.14
2019-04-05T08:00:25.124Z,93.95
2019-04-05T08:01:25.768Z,94.26
2019-04-05T08:02:26.423Z,94.17
2019-04-05T08:03:27.103Z,94.44
2019-04-05T08:04:27.697Z,94.80
2019-04-05T08:05:28.312Z,94.26
2019-04-05T08:06:28.766Z,94.17
2019-04-05T08:07:28.787Z,94.25
2019-04-05T08:08:29.498Z,94.64
2019-04-05T08:09:30.354Z,95.12
2019-04-05T08:10:30.464Z,95.28
2019-04-05T08:11:31.133Z,94.97
2019-04-05T08:12:31.762Z,94.97
2019-04-05T08:13:32.648Z,95.00
2019-04-05T08:14:32.882Z,94.86
2019-04-05T08:15:33.534Z,94.34
2019-04-05T08:16:33.659Z,94.68
2019-04-05T08:17:34.217Z,94.26
2019-04-05T08:18:34.962Z,94.75
2019-04-05T08:18:43.511Z,94.68
2019-04-05T08:19:44.607Z,94.68
2019-04-05T08:20:44.329Z,94.66
2019-04-05T08:21:45.886Z,94.12
2019-04-05T08:22:46.704Z,93.41
2019-04-05T08:23:47.439Z,93.68
2019-04-05T08:24:48.116Z,93.62
2019-04-05T08:25:48.667Z,93.42
2019-04-05T08:26:49.149Z,92.54
2019-04-05T08:27:49.768Z,92.67
2019-04-05T08:28:50.306Z,92.84
2019-04-05T08:29:50.924Z,92.80
2019-04-05T08:30:51.874Z,92.30
2019-04-05T08:31:52.564Z,90.63
2019-04-05T08:32:53.060Z,91.08
2019-04-05T08:33:53.555Z,91.23
2019-04-05T08:34:54.035Z,91.09
2019-04-05T08:35:54.574Z,91.39
2019-04-05T08:36:55.326Z,91.04
2019-04-05T08:37:55.995Z,91.33
2019-04-05T08:38:56.555Z,91.15
2019-04-05T08:39:57.071Z,90.49
2019-04-05T08:40:57.916Z,90.38
2019-04-05T08:41:58.514Z,91.22
2019-04-05T08:42:59.068Z,90.28
2019-04-05T08:43:59.651Z,89.66
2019-04-05T08:44:59.380Z,88.35
2019-04-05T08:46:01.200Z,88.01
2019-04-05T08:47:01.802Z,87.12
2019-04-05T08:48:02.274Z,86.73
2019-04-05T08:49:10.441Z,85.89
2019-04-05T08:50:02.221Z,85.92
2019-04-05T08:51:03.839Z,86.30
2019-04-05T08:52:04.456Z,86.01
2019-04-05T08:53:05.076Z,86.03
2019-04-05T08:54:05.835Z,86.35
2019-04-05T08:55:06.428Z,86.57
2019-04-05T08:56:07.138Z,86.56
2019-04-05T08:57:07.944Z,86.31
2019-04-05T08:58:08.479Z,86.78
2019-04-05T08:59:08.008Z,87.31
2019-04-05T09:00:09.840Z,88.21
2019-04-05T09:01:10.532Z,87.82
2019-04-05T09:02:11.132Z,87.73
2019-04-05T09:03:12.204Z,87.23
2019-04-05T09:04:11.595Z,87.83
2019-04-05T09:05:13.402Z,87.51
2019-04-05T09:05:21.932Z,87.06
2019-04-05T09:06:23.452Z,87.03
2019-04-05T09:07:23.976Z,87.76
2019-04-05T09:08:24.359Z,87.80
2019-04-05T09:09:24.905Z,88.04
2019-04-05T09:10:25.424Z,86.93
2019-04-05T09:11:25.913Z,86.88
2019-04-05T09:12:26.443Z,86.13
2019-04-05T09:13:26.959Z,85.54
2019-04-05T09:14:27.692Z,86.36
2019-04-05T09:15:28.620Z,86.14
2019-04-05T09:16:29.124Z,85.20
2019-04-05T09:17:29.603Z,84.97
2019-04-05T09:18:30.195Z,84.93
2019-04-05T09:19:30.636Z,85.11
2019-04-05T09:20:31.108Z,85.70
2019-04-05T09:21:31.993Z,85.02
2019-04-05T09:22:32.624Z,85.04
2019-04-05T09:23:32.053Z,84.40
2019-04-05T09:24:33.602Z,83.35
2019-04-05T09:25:34.178Z,83.55
2019-04-05T09:26:34.614Z,84.77
2019-04-05T09:27:35.178Z,85.03
2019-04-05T09:28:35.653Z,84.99
2019-04-05T09:29:36.235Z,84.61
2019-04-05T09:30:36.780Z,84.43
2019-04-05T09:31:37.187Z,84.72
2019-04-05T09:32:37.675Z,84.73
2019-04-05T09:33:37.259Z,84.24
2019-04-05T09:34:38.798Z,83.16
2019-04-05T09:35:39.182Z,83.87
2019-04-05T09:36:39.588Z,83.96
2019-04-05T09:37:39.983Z,84.10
2019-04-05T09:38:40.592Z,83.99
2019-04-05T09:39:41.008Z,83.80
2019-04-05T09:40:41.693Z,82.56
2019-04-05T09:41:42.163Z,81.86
2019-04-05T09:42:42.906Z,82.53
2019-04-05T09:43:43.404Z,82.88
2019-04-05T09:44:43.913Z,83.09
2019-04-05T09:45:44.357Z,82.50
2019-04-05T09:46:47.147Z,82.73
2019-04-05T09:47:44.554Z,82.75
2019-04-05T09:48:46.339Z,82.41
2019-04-05T09:49:46.959Z,82.77
2019-04-05T09:50:47.408Z,82.76
2019-04-05T09:51:48.025Z,83.14
2019-04-05T09:52:48.493Z,83.71
2019-04-05T09:52:57.028Z,82.82
2019-04-05T09:53:58.528Z,82.60
2019-04-05T09:54:59.406Z,82.32
2019-04-05T09:55:58.805Z,82.72
2019-04-05T09:56:58.825Z,83.06
2019-04-05T09:57:59.571Z,83.68
2019-04-05T09:59:00.753Z,84.91
2019-04-05T10:00:01.015Z,84.24
2019-04-05T10:01:00.663Z,83.72
2019-04-05T10:02:01.737Z,82.66
2019-04-05T10:03:01.971Z,82.27
2019-04-05T10:04:03.959Z,83.02
2019-04-05T10:05:03.522Z,82.52
2019-04-05T10:06:04.305Z,82.82
2019-04-05T10:07:05.698Z,83.06
2019-04-05T10:08:06.608Z,82.98
2019-04-05T10:09:07.126Z,83.38
2019-04-05T10:10:07.564Z,83.67
2019-04-05T10:11:08.226Z,82.67
2019-04-05T10:12:08.745Z,81.62
2019-04-05T10:13:09.964Z,81.27
2019-04-05T10:14:08.914Z,81.08
2019-04-05T10:15:10.423Z,80.96
2019-04-05T10:16:10.487Z,81.67
2019-04-05T10:17:11.101Z,81.42
2019-04-05T10:18:11.781Z,81.25
2019-04-05T10:19:12.322Z,81.57
2019-04-05T10:20:12.823Z,81.13
2019-04-05T10:21:13.357Z,80.33
2019-04-05T10:22:14.081Z,81.06
2019-04-05T10:23:14.703Z,81.44
2019-04-05T10:24:15.336Z,81.11
2019-04-05T10:25:15.960Z,80.79
2019-04-05T10:26:15.418Z,81.13
2019-04-05T10:27:17.152Z,81.62
2019-04-05T10:28:17.992Z,81.37
2019-04-05T10:29:18.458Z,81.76
2019-04-05T10:30:19.131Z,81.99
2019-04-05T10:31:19.794Z,81.82
2019-04-05T10:32:20.296Z,80.86
2019-04-05T10:33:20.813Z,80.50
2019-04-05T10:34:21.308Z,81.09
2019-04-05T10:35:21.970Z,80.25
2019-04-05T10:36:22.408Z,80.58
2019-04-05T10:37:22.841Z,80.61
2019-04-05T10:38:23.384Z,80.24
2019-04-05T10:39:23.910Z,79.84
2019-04-05T10:40:24.869Z,80.64
2019-04-05T10:41:25.504Z,81.39
2019-04-05T10:42:26.131Z,81.40
2019-04-05T10:43:25.845Z,82.00
2019-04-05T10:44:27.463Z,82.65
2019-04-05T10:45:28.217Z,82.78
2019-04-05T10:45:40.260Z,82.99
2019-04-05T10:46:41.737Z,82.90
2019-04-05T10:47:42.164Z,83.72
2019-04-05T10:48:42.857Z,82.90
2019-04-05T10:49:42.257Z,82.69
2019-04-05T10:50:44.003Z,82.08
2019-04-05T10:51:44.603Z,82.44
2019-04-05T10:52:45.370Z,83.24
2019-04-05T10:53:46.044Z,83.15
2019-04-05T10:54:46.548Z,83.50
2019-04-05T10:55:47.092Z,83.11
2019-04-05T10:56:47.586Z,83.34
2019-04-05T10:57:48.136Z,82.58
2019-04-05T10:58:48.798Z,82.50
2019-04-05T10:59:49.265Z,82.99
2019-04-05T11:00:49.830Z,82.85
2019-04-05T11:01:49.344Z,83.00
2019-04-05T11:02:50.524Z,83.44
2019-04-05T11:03:50.128Z,83.34
2019-04-05T11:04:51.947Z,83.54
2019-04-05T11:05:52.483Z,83.72
2019-04-05T11:06:53.125Z,83.78
2019-04-05T11:07:53.630Z,84.08
2019-04-05T11:08:54.335Z,83.79
2019-04-05T11:09:54.842Z,83.79
2019-04-05T11:10:55.534Z,84.08
2019-04-05T11:11:55.950Z,84.13
2019-04-05T11:12:56.652Z,84.01
2019-04-05T11:13:57.087Z,83.66
2019-04-05T11:14:57.676Z,82.95
2019-04-05T11:15:58.202Z,83.38
2019-04-05T11:16:58.977Z,83.65
2019-04-05T11:17:58.457Z,83.55
2019-04-05T11:19:01.983Z,83.82
2019-04-05T11:19:59.837Z,83.55
2019-04-05T11:21:01.492Z,83.81
2019-04-05T11:22:02.054Z,83.77
2019-04-05T11:23:02.469Z,84.04
2019-04-05T11:24:03.187Z,83.31
2019-04-05T11:25:03.813Z,83.24
2019-04-05T11:26:04.209Z,83.29
2019-04-05T11:27:06.609Z,83.87
2019-04-05T11:28:04.091Z,84.10
2019-04-05T11:29:05.688Z,83.96
2019-04-05T11:30:06.221Z,83.70
2019-04-05T11:31:06.644Z,83.49
2019-04-05T11:32:07.466Z,83.22
2019-04-05T11:33:07.915Z,83.21
2019-04-05T11:33:19.566Z,83.42
2019-04-05T11:34:16.927Z,83.38
2019-04-05T11:35:18.568Z,82.53
2019-04-05T11:36:19.305Z,82.63
2019-04-05T11:37:19.860Z,83.01
2019-04-05T11:38:20.314Z,83.49
2019-04-05T11:39:20.836Z,83.21
2019-04-05T11:40:24.044Z,82.84
2019-04-05T11:41:20.956Z,83.08
2019-04-05T11:42:22.531Z,83.17
2019-04-05T11:43:26.260Z,82.50
2019-04-05T11:44:22.774Z,82.68
2019-04-05T11:45:24.414Z,82.71
2019-04-05T11:46:23.983Z,82.51
2019-04-05T11:47:25.439Z,82.74
2019-04-05T11:48:26.234Z,81.71
2019-04-05T11:49:26.710Z,82.40
2019-04-05T11:50:34.506Z,82.25
2019-04-05T11:51:27.039Z,82.14
2019-04-05T11:52:28.427Z,81.52
2019-04-05T11:53:29.208Z,81.57
2019-04-05T11:54:29.767Z,82.00
2019-04-05T11:55:29.880Z,82.18
2019-04-05T11:56:30.448Z,82.49
2019-04-05T11:57:31.300Z,82.44
2019-04-05T11:58:32.140Z,82.19
2019-04-05T11:59:32.827Z,82.14
2019-04-05T12:00:33.467Z,81.94
2019-04-05T12:01:34.248Z,81.81
2019-04-05T12:02:34.151Z,81.96
2019-04-05T12:03:35.645Z,81.99
2019-04-05T12:04:36.142Z,82.12
2019-04-05T12:05:36.670Z,82.18
2019-04-05T12:06:37.206Z,82.19
2019-04-05T12:07:38.052Z,82.03
2019-04-05T12:08:38.744Z,82.33
2019-04-05T12:09:39.227Z,81.61
2019-04-05T12:10:39.644Z,81.70
2019-04-05T12:11:40.153Z,82.23
2019-04-05T12:12:40.623Z,82.28
2019-04-05T12:13:41.191Z,82.02
2019-04-05T12:14:41.968Z,82.03
2019-04-05T12:15:42.509Z,82.04
2019-04-05T12:16:43.200Z,82.41
2019-04-05T12:17:43.805Z,82.66
2019-04-05T12:18:44.272Z,82.44
2019-04-05T12:19:44.976Z,82.87
2019-04-05T12:20:52.180Z,82.95
2019-04-05T12:21:45.409Z,82.94
2019-04-05T12:22:46.544Z,83.02
2019-04-05T12:23:46.968Z,83.33
2019-04-05T12:23:55.488Z,82.75
2019-04-05T12:24:57.029Z,82.73
2019-04-05T12:25:57.402Z,82.69
2019-04-05T12:26:58.151Z,83.19
2019-04-05T12:28:06.732Z,83.67
2019-04-05T12:28:58.155Z,83.07
2019-04-05T12:29:59.615Z,83.11
2019-04-05T12:31:00.613Z,82.81
2019-04-05T12:32:00.994Z,82.79
2019-04-05T12:33:12.973Z,82.88
2019-04-05T12:34:01.489Z,82.84
2019-04-05T12:35:02.891Z,82.98